Terminal Aerodrome Forecast
Issued by NWS Sterling, VA

Home | Current Version | Previous Version | Text Only | Print | Product List | Glossary On
Versions: 1 2 3 4 5 6 7 8 9 10 11 12 13 14 15 16 17 18 19 20 21
000
FTUS41 KLWX 271100
TAFIAD
TAF
KIAD 271136Z 2712/2818 00000KT P6SM SKC
     FM271600 30004KT P6SM FEW050
     FM280000 VRB05KT P6SM VCSH BKN050
     FM280400 29004KT P6SM SCT050
     FM280700 34008KT P6SM SCT090=

USA.gov is the U.S. government's official web portal to all federal, state and local government web resources and services.